Time;durP1;ratioP1;P1;durP2;ratioP2;P2;SDS_P1;SDS_P2;PMS_P1;PMS_P2;Temp;Humidity;BMP_temperature;BMP_pressure;BME280_temperature;BME280_humidity;BME280_pressure;Samples;Min_cycle;Max_cycle;Signal;HPM_P1;HPM_P2
2024/01/25 00:01:37;;;;;;;36.10;8.27;;;;;;;10.06;65.95;102762.22;4944810;29;20454;-65
2024/01/25 00:04:05;;;;;;;36.25;6.60;;;;;;;10.07;66.27;102763.06;4936039;29;20115;-65
2024/01/25 00:06:34;;;;;;;36.72;7.90;;;;;;;10.06;66.04;102783.69;4945472;29;20104;-65
2024/01/25 00:09:02;;;;;;;36.95;7.72;;;;;;;10.05;66.24;102779.34;4944328;29;20048;-65
2024/01/25 00:11:32;;;;;;;39.65;9.18;;;;;;;10.03;66.36;102780.53;4943158;29;20059;-64
2024/01/25 00:13:59;;;;;;;36.35;7.78;;;;;;;10.03;66.30;102767.09;4942652;29;20110;-64
2024/01/25 00:16:28;;;;;;;35.72;7.82;;;;;;;10.01;66.27;102769.94;4944747;29;20051;-64
2024/01/25 00:18:57;;;;;;;40.35;7.70;;;;;;;10.01;66.25;102777.16;4936196;29;20056;-64
2024/01/25 00:21:25;;;;;;;35.67;8.05;;;;;;;10.00;66.29;102776.31;4948608;29;20047;-64
2024/01/25 00:23:53;;;;;;;43.53;8.00;;;;;;;10.00;66.26;102789.75;4945734;29;20052;-64
2024/01/25 00:26:20;;;;;;;35.45;8.45;;;;;;;9.98;66.19;102772.97;4944062;29;20072;-64
2024/01/25 00:28:49;;;;;;;35.95;8.40;;;;;;;9.98;66.32;102772.13;4940404;29;20527;-64
2024/01/25 00:31:16;;;;;;;28.92;7.32;;;;;;;9.97;66.34;102773.16;4949241;29;20090;-64
2024/01/25 00:33:44;;;;;;;36.08;7.32;;;;;;;9.96;66.33;102785.72;4949316;29;20055;-65
2024/01/25 00:36:15;;;;;;;31.75;7.15;;;;;;;9.94;66.38;102785.06;4941104;29;20501;-65
2024/01/25 00:38:44;;;;;;;31.05;7.05;;;;;;;9.94;66.40;102773.47;4945947;29;20044;-65
2024/01/25 00:41:18;;;;;;;34.88;8.65;;;;;;;9.92;66.67;102773.66;4947446;29;20147;-64
2024/01/25 00:43:47;;;;;;;37.60;6.97;;;;;;;9.89;66.62;102767.78;4942427;29;20076;-64
2024/01/25 00:46:15;;;;;;;30.65;5.97;;;;;;;9.90;66.61;102775.66;4947323;29;20075;-64
2024/01/25 00:48:43;;;;;;;33.10;6.95;;;;;;;9.90;66.71;102769.47;4946027;29;20055;-65
2024/01/25 00:51:16;;;;;;;33.97;7.30;;;;;;;9.88;66.57;102764.25;4947596;29;20060;-64
2024/01/25 00:53:45;;;;;;;31.15;6.65;;;;;;;9.88;66.80;102774.16;4946404;29;20055;-64
2024/01/25 00:56:13;;;;;;;31.23;7.32;;;;;;;9.87;66.75;102772.50;4946334;29;20048;-65
2024/01/25 00:58:41;;;;;;;31.00;7.32;;;;;;;9.86;66.54;102781.56;4945264;29;20076;-65
2024/01/25 01:01:10;;;;;;;34.90;7.75;;;;;;;9.86;66.68;102781.56;4944386;29;20110;-65
2024/01/25 01:03:39;;;;;;;39.95;7.65;;;;;;;9.85;66.64;102790.63;4945953;28;20075;-64
2024/01/25 01:06:08;;;;;;;37.03;6.75;;;;;;;9.85;66.59;102783.41;4947580;29;20319;-64
2024/01/25 01:08:38;;;;;;;31.60;7.65;;;;;;;9.83;66.56;102774.66;4939508;29;20062;-64
2024/01/25 01:11:06;;;;;;;40.50;7.53;;;;;;;9.83;66.63;102779.19;4946835;29;20177;-65
2024/01/25 01:13:34;;;;;;;27.58;7.22;;;;;;;9.83;66.16;102773.84;4947717;29;20134;-64
2024/01/25 01:16:01;;;;;;;28.25;6.03;;;;;;;9.85;66.67;102780.72;4947164;29;20043;-66
2024/01/25 01:18:29;;;;;;;30.23;7.10;;;;;;;9.85;66.84;102791.47;4941419;29;20063;-64
2024/01/25 01:20:57;;;;;;;41.70;7.95;;;;;;;9.85;66.55;102794.13;4943619;29;20479;-65
2024/01/25 01:23:25;;;;;;;39.75;8.32;;;;;;;9.85;66.50;102788.78;4947341;29;20107;-65
2024/01/25 01:25:54;;;;;;;33.50;5.70;;;;;;;9.84;66.41;102792.47;4944021;29;20580;-64
2024/01/25 01:28:22;;;;;;;34.75;8.02;;;;;;;9.83;66.40;102811.44;4945901;29;20043;-65
2024/01/25 01:30:50;;;;;;;27.65;6.28;;;;;;;9.82;66.69;102805.22;4936833;29;20089;-63
2024/01/25 01:33:18;;;;;;;38.90;7.15;;;;;;;9.82;66.63;102807.91;4945158;29;20358;-63
2024/01/25 01:35:46;;;;;;;37.85;7.28;;;;;;;9.81;66.63;102802.69;4947218;29;20109;-64
2024/01/25 01:38:13;;;;;;;34.63;7.57;;;;;;;9.82;66.62;102799.00;4946982;29;20054;-64
2024/01/25 01:40:41;;;;;;;30.02;6.32;;;;;;;9.81;66.59;102794.66;4943989;29;20573;-64
2024/01/25 01:43:18;;;;;;;27.23;6.28;;;;;;;9.79;66.60;102797.50;4946464;29;20047;-64
2024/01/25 01:45:47;;;;;;;28.92;7.18;;;;;;;9.75;66.69;102812.28;4945963;29;20150;-64
2024/01/25 01:48:14;;;;;;;29.23;6.22;;;;;;;9.77;66.57;102808.41;4946849;29;20399;-65
2024/01/25 01:50:44;;;;;;;33.00;6.30;;;;;;;9.77;66.96;102808.41;4945667;29;20071;-65
2024/01/25 01:53:13;;;;;;;30.27;6.35;;;;;;;9.75;66.79;102807.75;4944046;29;20047;-65
2024/01/25 01:55:41;;;;;;;36.38;7.00;;;;;;;9.75;67.00;102814.97;4945791;29;20103;-65
2024/01/25 01:58:10;;;;;;;31.90;6.35;;;;;;;9.73;66.65;102814.28;4941066;29;20051;-66
2024/01/25 02:00:39;;;;;;;26.30;6.22;;;;;;;9.72;66.86;102815.28;4943064;29;20051;-65
2024/01/25 02:03:07;;;;;;;33.17;8.32;;;;;;;9.68;66.99;102830.91;4946443;29;20063;-65
2024/01/25 02:05:36;;;;;;;40.15;7.32;;;;;;;9.66;67.07;102822.16;4946605;29;20090;-65
2024/01/25 02:08:05;;;;;;;45.38;9.55;;;;;;;9.66;67.09;102829.38;4945854;29;20051;-65
2024/01/25 02:10:33;;;;;;;50.92;8.15;;;;;;;9.64;66.83;102834.91;4945597;29;20114;-64
2024/01/25 02:13:00;;;;;;;41.70;7.85;;;;;;;9.63;67.33;102837.78;4946104;29;20048;-65
2024/01/25 02:15:30;;;;;;;36.72;7.63;;;;;;;9.61;66.99;102843.31;4939880;29;20080;-65
2024/01/25 02:17:57;;;;;;;34.78;7.93;;;;;;;9.59;67.15;102842.63;4943488;29;20047;-64
2024/01/25 02:20:26;;;;;;;37.65;8.68;;;;;;;9.59;67.17;102852.53;4943464;29;20052;-64
2024/01/25 02:22:55;;;;;;;26.63;6.40;;;;;;;9.58;67.20;102859.75;4946144;29;20074;-64
2024/01/25 02:25:23;;;;;;;32.20;7.03;;;;;;;9.56;66.94;102864.44;4945505;29;20628;-65
2024/01/25 02:27:51;;;;;;;32.53;7.18;;;;;;;9.55;67.11;102862.75;4940022;29;20054;-65
2024/01/25 02:30:19;;;;;;;26.77;7.57;;;;;;;9.55;67.15;102856.56;4942618;29;20073;-66
2024/01/25 02:32:47;;;;;;;35.65;6.72;;;;;;;9.53;66.98;102862.09;4945115;29;20054;-64
2024/01/25 02:35:15;;;;;;;31.48;6.80;;;;;;;9.52;67.12;102876.50;4943404;29;20060;-64
2024/01/25 02:37:43;;;;;;;31.50;6.18;;;;;;;9.51;67.02;102874.84;4955824;29;20594;-65
2024/01/25 02:40:13;;;;;;;34.33;7.45;;;;;;;9.51;67.08;102874.00;4932966;29;21516;-64
2024/01/25 02:42:41;;;;;;;40.03;6.60;;;;;;;9.49;67.29;102878.69;4945656;29;20150;-64
2024/01/25 02:45:10;;;;;;;34.42;7.65;;;;;;;9.48;67.26;102877.00;4939035;29;20055;-63
2024/01/25 02:47:37;;;;;;;31.10;6.18;;;;;;;9.46;67.03;102877.19;4946050;29;20115;-63
2024/01/25 02:50:06;;;;;;;31.42;6.55;;;;;;;9.46;66.78;102877.19;4942260;29;20052;-64
2024/01/25 02:52:34;;;;;;;27.20;6.55;;;;;;;9.44;67.27;102874.66;4950384;29;20102;-64
2024/01/25 02:55:02;;;;;;;36.10;7.68;;;;;;;9.43;67.28;102867.59;4949036;29;20055;-64
2024/01/25 02:57:32;;;;;;;28.35;6.03;;;;;;;9.42;67.03;102873.97;4942163;29;20042;-64
2024/01/25 03:00:01;;;;;;;35.05;6.38;;;;;;;9.42;66.52;102857.88;4935028;29;20047;-64
2024/01/25 03:02:29;;;;;;;36.83;7.50;;;;;;;9.40;66.63;102859.88;4933625;29;20093;-64
2024/01/25 03:04:57;;;;;;;26.65;7.15;;;;;;;9.39;66.96;102862.75;4945762;29;20123;-65
2024/01/25 03:07:25;;;;;;;31.17;5.57;;;;;;;9.37;67.05;102860.22;4944570;29;20087;-65
2024/01/25 03:09:52;;;;;;;27.35;6.25;;;;;;;9.37;67.04;102862.91;4948696;29;20087;-65
2024/01/25 03:12:19;;;;;;;28.23;6.13;;;;;;;9.37;66.71;102870.09;4944151;29;20055;-65
2024/01/25 03:14:49;;;;;;;31.58;7.35;;;;;;;9.37;66.65;102862.06;4937313;29;20052;-64
2024/01/25 03:17:17;;;;;;;28.30;6.00;;;;;;;9.35;66.81;102864.91;4938786;29;20052;-64
2024/01/25 03:19:45;;;;;;;36.30;7.85;;;;;;;9.33;66.63;102863.41;4939616;29;20052;-65
2024/01/25 03:22:13;;;;;;;32.08;6.80;;;;;;;9.31;66.90;102862.72;4936933;29;20121;-65
2024/01/25 03:24:41;;;;;;;26.42;5.68;;;;;;;9.28;66.98;102861.19;4936986;29;20055;-65
2024/01/25 03:27:13;;;;;;;29.88;7.05;;;;;;;9.29;66.69;102859.34;4944109;29;20438;-65
2024/01/25 03:29:42;;;;;;;26.52;5.90;;;;;;;9.29;67.01;102859.34;4944585;29;20052;-65
2024/01/25 03:32:12;;;;;;;23.35;5.80;;;;;;;9.27;66.80;102861.38;4941691;29;20066;-65
2024/01/25 03:34:40;;;;;;;25.45;6.50;;;;;;;9.28;66.74;102858.53;4945806;29;20118;-65
2024/01/25 03:37:08;;;;;;;30.17;6.72;;;;;;;9.28;66.46;102869.25;4937538;29;20514;-65
2024/01/25 03:39:36;;;;;;;27.83;6.53;;;;;;;9.28;66.81;102861.19;4945526;29;20047;-65
2024/01/25 03:42:04;;;;;;;30.83;6.22;;;;;;;9.28;66.52;102871.94;4943924;29;20063;-65
2024/01/25 03:44:32;;;;;;;29.10;6.45;;;;;;;9.27;66.70;102867.56;4940760;29;20055;-64
2024/01/25 03:47:00;;;;;;;30.38;7.88;;;;;;;9.28;66.38;102871.09;4945203;29;20111;-65
2024/01/25 03:49:29;;;;;;;25.85;6.05;;;;;;;9.27;66.58;102872.09;4946229;29;20154;-65
2024/01/25 03:51:57;;;;;;;25.38;6.80;;;;;;;9.26;66.76;102878.47;4948391;29;20078;-63
2024/01/25 03:54:25;;;;;;;24.02;5.35;;;;;;;9.26;66.51;102873.09;4948507;29;20083;-63
2024/01/25 03:56:53;;;;;;;30.48;6.45;;;;;;;9.25;66.13;102877.63;4945556;29;20047;-64
2024/01/25 03:59:21;;;;;;;26.73;5.95;;;;;;;9.25;66.60;102871.41;4939771;29;20056;-64
2024/01/25 04:01:49;;;;;;;26.08;6.03;;;;;;;9.24;66.40;102873.25;4944494;29;20574;-64
2024/01/25 04:04:17;;;;;;;24.00;5.70;;;;;;;9.23;66.35;102873.44;4942575;29;20079;-64
2024/01/25 04:06:47;;;;;;;30.85;5.80;;;;;;;9.22;66.16;102871.75;4949066;29;20134;-64
2024/01/25 04:09:16;;;;;;;27.80;6.13;;;;;;;9.22;66.45;102877.13;4946213;29;20052;-64
2024/01/25 04:11:43;;;;;;;31.20;6.00;;;;;;;9.19;66.12;102877.44;4946230;29;20098;-64
2024/01/25 04:14:11;;;;;;;36.33;5.95;;;;;;;9.20;66.45;102892.53;4947776;29;20083;-64
2024/01/25 04:16:40;;;;;;;26.80;6.28;;;;;;;9.18;66.62;102887.31;4947267;29;20489;-64
2024/01/25 04:19:12;;;;;;;30.67;7.03;;;;;;;9.16;66.39;102896.53;4947754;29;20358;-64
2024/01/25 04:21:40;;;;;;;31.42;6.57;;;;;;;9.15;66.28;102884.97;4939426;29;20055;-64
2024/01/25 04:24:09;;;;;;;32.58;7.88;;;;;;;9.13;66.82;102890.50;4933362;29;20062;-64
2024/01/25 04:26:37;;;;;;;29.15;5.93;;;;;;;9.11;66.37;102889.81;4947418;29;20058;-64
2024/01/25 04:29:06;;;;;;;25.25;5.43;;;;;;;9.09;66.45;102883.78;4946815;29;20060;-65
2024/01/25 04:31:33;;;;;;;26.33;6.00;;;;;;;9.08;66.17;102876.72;4944808;29;20469;-64
2024/01/25 04:34:01;;;;;;;28.58;6.28;;;;;;;9.07;66.70;102869.69;4947878;29;20066;-64
2024/01/25 04:36:30;;;;;;;20.77;6.18;;;;;;;9.06;66.17;102869.84;4961559;29;20062;-64
2024/01/25 04:38:57;;;;;;;34.10;6.85;;;;;;;9.05;66.66;102878.91;4955460;29;20481;-64
2024/01/25 04:41:27;;;;;;;31.65;6.70;;;;;;;9.03;66.05;102873.69;4948532;29;20076;-64
2024/01/25 04:43:54;;;;;;;24.50;6.85;;;;;;;9.01;66.60;102870.34;4947089;29;20118;-65
2024/01/25 04:46:22;;;;;;;30.17;7.32;;;;;;;9.00;66.73;102868.66;4947228;29;20051;-64
2024/01/25 04:48:50;;;;;;;36.03;7.18;;;;;;;8.99;66.58;102875.03;4941986;29;20079;-64
2024/01/25 04:51:19;;;;;;;27.13;5.07;;;;;;;8.97;66.68;102882.38;4945322;29;20059;-65
2024/01/25 04:53:47;;;;;;;25.40;5.43;;;;;;;8.97;66.68;102881.53;4951353;29;20149;-65
2024/01/25 04:56:15;;;;;;;24.20;5.15;;;;;;;8.95;66.52;102878.19;4946044;29;20585;-64
2024/01/25 04:58:44;;;;;;;24.05;6.90;;;;;;;8.95;66.84;102875.50;4943551;29;20048;-65
2024/01/25 05:01:12;;;;;;;23.35;5.00;;;;;;;8.94;66.24;102876.50;4947243;29;20051;-64
2024/01/25 05:03:40;;;;;;;32.30;6.50;;;;;;;8.93;66.51;102878.34;4961186;29;20079;-64
2024/01/25 05:06:08;;;;;;;24.25;5.47;;;;;;;8.91;66.00;102875.00;4967236;29;20138;-64
2024/01/25 05:08:36;;;;;;;25.90;6.25;;;;;;;8.90;66.35;102873.31;4966296;29;20048;-65
2024/01/25 05:11:04;;;;;;;36.40;6.80;;;;;;;8.88;66.37;102867.28;4960655;29;20051;-64
2024/01/25 05:13:34;;;;;;;29.90;6.47;;;;;;;8.87;66.40;102857.53;4965888;29;20050;-64
2024/01/25 05:16:03;;;;;;;24.58;5.82;;;;;;;8.85;66.58;102856.88;4961217;29;20055;-64
2024/01/25 05:18:31;;;;;;;22.88;5.85;;;;;;;8.84;66.40;102857.88;4966749;28;20098;-65
2024/01/25 05:20:59;;;;;;;23.95;6.47;;;;;;;8.85;66.01;102858.72;4966588;29;20051;-65
2024/01/25 05:23:28;;;;;;;17.60;5.25;;;;;;;8.82;66.59;102859.88;4956443;29;20051;-65
2024/01/25 05:25:55;;;;;;;18.95;5.68;;;;;;;8.81;66.63;102856.34;4965100;29;20504;-64
2024/01/25 05:28:24;;;;;;;32.92;5.82;;;;;;;8.79;66.14;102854.81;4964597;29;20091;-65
2024/01/25 05:30:52;;;;;;;29.95;6.97;;;;;;;8.78;66.42;102875.44;4962361;29;20057;-64
2024/01/25 05:33:21;;;;;;;26.38;6.13;;;;;;;8.77;66.53;102875.59;4966725;29;20139;-64
2024/01/25 05:35:49;;;;;;;24.50;5.97;;;;;;;8.77;66.34;102872.91;4966298;29;20097;-65
2024/01/25 05:38:17;;;;;;;22.95;6.70;;;;;;;8.75;65.86;102872.22;4968228;28;20452;-63
2024/01/25 05:40:45;;;;;;;30.52;6.88;;;;;;;8.67;65.78;102865.00;4963187;29;20047;-64
2024/01/25 05:43:13;;;;;;;25.15;5.57;;;;;;;8.69;65.63;102871.03;4963922;29;20051;-64
2024/01/25 05:45:41;;;;;;;18.50;5.70;;;;;;;8.72;66.62;102877.91;4963119;29;20110;-63
2024/01/25 05:48:08;;;;;;;27.75;6.95;;;;;;;8.70;66.14;102886.13;4961701;29;20047;-65
2024/01/25 05:50:38;;;;;;;24.23;6.95;;;;;;;8.71;66.63;102889.63;4963187;29;20047;-64
2024/01/25 05:53:06;;;;;;;31.40;7.72;;;;;;;8.69;66.49;102880.91;4965650;29;20055;-64
2024/01/25 05:55:33;;;;;;;23.33;6.55;;;;;;;8.67;66.23;102890.94;4964401;29;20111;-64
2024/01/25 05:58:02;;;;;;;22.65;5.32;;;;;;;8.66;66.19;102892.81;4962478;28;20051;-64
2024/01/25 06:00:30;;;;;;;25.55;5.78;;;;;;;8.65;66.62;102890.31;4958466;29;20046;-64
2024/01/25 06:02:58;;;;;;;30.65;6.20;;;;;;;8.64;66.60;102885.94;4961463;28;20059;-64
2024/01/25 06:05:26;;;;;;;30.75;5.90;;;;;;;8.63;66.63;102890.47;4965142;29;20051;-64
2024/01/25 06:07:55;;;;;;;26.05;6.63;;;;;;;8.61;66.14;102887.09;4962814;29;20814;-65
2024/01/25 06:10:24;;;;;;;29.33;6.38;;;;;;;8.62;66.01;102886.09;4962296;28;20047;-65
2024/01/25 06:12:52;;;;;;;32.97;6.82;;;;;;;8.62;66.13;102877.22;4963311;28;20062;-64
2024/01/25 06:15:20;;;;;;;28.27;5.75;;;;;;;8.54;66.42;102871.81;4963487;28;20118;-65
2024/01/25 06:17:48;;;;;;;29.65;5.80;;;;;;;8.63;66.33;102890.47;4964043;29;20043;-65
2024/01/25 06:20:16;;;;;;;29.52;7.43;;;;;;;8.53;66.07;102879.00;4963898;29;20102;-65
2024/01/25 06:22:44;;;;;;;29.23;6.78;;;;;;;8.62;66.24;102899.50;4965141;28;20058;-63
2024/01/25 06:25:13;;;;;;;23.80;7.05;;;;;;;8.60;65.92;102898.81;4963070;29;20047;-65
2024/01/25 06:27:41;;;;;;;31.40;5.88;;;;;;;8.59;66.57;102898.97;4963866;28;20059;-65
2024/01/25 06:30:09;;;;;;;30.40;6.90;;;;;;;8.60;66.23;102908.69;4966082;28;20054;-64
2024/01/25 06:32:38;;;;;;;30.00;6.85;;;;;;;8.60;66.09;102911.38;4968576;28;20058;-65
2024/01/25 06:35:07;;;;;;;34.75;8.50;;;;;;;8.59;65.86;102910.53;4623910;28;10000118;-63
2024/01/25 06:37:35;;;;;;;29.77;6.15;;;;;;;8.56;65.95;102915.38;4959785;29;20503;-63
2024/01/25 06:40:04;;;;;;;30.23;6.63;;;;;;;8.54;66.61;102904.81;4960504;29;20118;-63
2024/01/25 06:42:34;;;;;;;32.25;5.97;;;;;;;8.54;66.47;102899.47;4959715;29;20082;-61
2024/01/25 06:45:02;;;;;;;35.50;8.60;;;;;;;8.53;66.44;102897.78;4958785;29;20069;-63
2024/01/25 06:47:32;;;;;;;26.20;6.65;;;;;;;8.53;66.13;102902.28;4959840;29;20074;-64
2024/01/25 06:49:59;;;;;;;38.17;8.02;;;;;;;8.51;66.16;102906.97;4958505;29;20389;-62
2024/01/25 06:52:28;;;;;;;24.95;6.00;;;;;;;8.51;66.64;102902.44;4961953;28;20066;-62
2024/01/25 06:54:57;;;;;;;28.48;6.55;;;;;;;8.48;66.20;102898.25;4959835;29;20913;-64
2024/01/25 06:57:25;;;;;;;36.00;6.57;;;;;;;8.48;65.92;102900.94;4959074;29;20127;-63
2024/01/25 06:59:54;;;;;;;26.65;5.85;;;;;;;8.46;66.44;102908.28;4960615;29;20047;-66
2024/01/25 07:02:22;;;;;;;23.23;5.85;;;;;;;8.46;65.92;102910.97;4949462;28;20167;-64
2024/01/25 07:04:52;;;;;;;32.42;7.45;;;;;;;8.45;66.27;102913.81;4936024;29;20051;-64
2024/01/25 07:07:21;;;;;;;23.70;5.35;;;;;;;8.44;65.95;102914.78;4942878;29;20052;-62
2024/01/25 07:09:49;;;;;;;19.65;6.68;;;;;;;8.34;66.45;102895.31;4935378;29;20048;-64
2024/01/25 07:12:16;;;;;;;30.80;6.05;;;;;;;8.32;66.11;102902.63;4943674;29;20119;-65
2024/01/25 07:14:44;;;;;;;27.10;5.57;;;;;;;8.29;65.68;102897.56;4944957;29;20082;-65
2024/01/25 07:17:14;;;;;;;29.55;7.32;;;;;;;8.32;66.05;102913.34;4945114;29;20083;-65
2024/01/25 07:19:41;;;;;;;28.02;6.78;;;;;;;8.33;65.79;102923.94;4945634;29;20474;-65
2024/01/25 07:22:11;;;;;;;24.23;6.38;;;;;;;8.33;66.09;102923.94;4938755;29;20062;-64
2024/01/25 07:24:39;;;;;;;21.75;5.63;;;;;;;8.32;65.93;102924.06;4950436;29;20062;-65
2024/01/25 07:27:07;;;;;;;26.10;6.60;;;;;;;8.32;65.71;102916.84;4948437;29;20059;-64
2024/01/25 07:29:35;;;;;;;29.05;7.75;;;;;;;8.31;65.90;102915.19;4948818;29;20079;-65
2024/01/25 07:32:03;;;;;;;22.05;6.03;;;;;;;8.30;65.46;102918.84;4949457;29;20120;-65
2024/01/25 07:34:32;;;;;;;31.73;6.22;;;;;;;8.31;65.83;102922.38;4949973;29;20071;-66
2024/01/25 07:37:00;;;;;;;25.23;8.15;;;;;;;8.28;65.24;102920.84;4948736;29;20055;-66
2024/01/25 07:39:28;;;;;;;25.55;5.70;;;;;;;8.28;65.89;102933.41;4947317;29;20051;-66
2024/01/25 07:41:56;;;;;;;27.10;7.07;;;;;;;8.25;65.58;102931.88;4947909;29;20052;-65
2024/01/25 07:44:23;;;;;;;23.17;5.82;;;;;;;8.26;65.95;102925.50;4948291;29;20066;-65
2024/01/25 07:46:51;;;;;;;22.13;6.63;;;;;;;8.26;66.12;102924.69;4942006;29;20055;-64
2024/01/25 07:49:19;;;;;;;30.70;6.55;;;;;;;8.24;65.97;102924.81;4947285;29;20055;-65
2024/01/25 07:51:48;;;;;;;18.60;5.50;;;;;;;8.15;65.88;102910.53;4942839;29;20059;-65
2024/01/25 07:54:17;;;;;;;22.25;5.97;;;;;;;8.22;65.52;102917.94;4946023;29;20047;-65
2024/01/25 07:56:45;;;;;;;28.58;6.10;;;;;;;8.23;65.71;102920.47;4946020;29;21086;-65
2024/01/25 07:59:12;;;;;;;19.80;6.45;;;;;;;8.22;65.68;102924.16;4947886;29;20546;-65
2024/01/25 08:01:40;;;;;;;25.02;6.63;;;;;;;8.21;65.96;102930.50;4951642;29;20048;-66
2024/01/25 08:04:08;;;;;;;18.85;5.43;;;;;;;8.17;65.88;102921.09;4951705;28;20059;-65
2024/01/25 08:06:36;;;;;;;31.15;8.48;;;;;;;8.20;65.97;102931.50;4952789;29;20517;-63
2024/01/25 08:09:06;;;;;;;27.88;6.28;;;;;;;8.20;65.74;102933.34;4953637;29;20229;-64
2024/01/25 08:11:34;;;;;;;24.80;6.05;;;;;;;8.21;65.61;102937.69;4948695;29;20052;-64
2024/01/25 08:14:03;;;;;;;27.35;6.63;;;;;;;8.20;66.12;102946.72;4949938;29;20072;-62
2024/01/25 08:16:31;;;;;;;24.95;6.57;;;;;;;8.19;66.86;102948.56;4952056;29;20047;-65
2024/01/25 08:18:59;;;;;;;29.73;7.80;;;;;;;8.19;66.09;102950.41;4945778;29;20055;-64
2024/01/25 08:21:27;;;;;;;27.80;7.63;;;;;;;8.19;65.98;102945.03;4947040;29;20047;-65
2024/01/25 08:23:55;;;;;;;29.30;7.22;;;;;;;8.16;66.33;102949.72;4946289;29;20051;-66
2024/01/25 08:26:24;;;;;;;19.45;6.53;;;;;;;8.19;66.40;102958.44;4952718;29;20047;-64
2024/01/25 08:28:52;;;;;;;26.17;6.13;;;;;;;8.15;66.73;102931.97;4950204;29;20052;-63
2024/01/25 08:31:20;;;;;;;24.50;6.47;;;;;;;8.15;66.23;102918.56;4948784;29;20047;-62
2024/01/25 08:33:48;;;;;;;23.30;6.80;;;;;;;8.15;66.45;102912.38;4948376;29;20052;-63
2024/01/25 08:36:18;;;;;;;21.95;7.10;;;;;;;8.15;66.80;102913.22;4957651;29;20056;-63
2024/01/25 08:38:46;;;;;;;22.65;6.60;;;;;;;8.15;66.50;102915.88;4962461;29;20066;-62
2024/01/25 08:41:15;;;;;;;18.65;6.93;;;;;;;8.15;67.25;102923.09;4946489;29;20088;-62
2024/01/25 08:43:44;;;;;;;23.95;7.68;;;;;;;8.16;66.75;102930.97;4952927;29;20115;-62
2024/01/25 08:46:14;;;;;;;23.63;6.55;;;;;;;8.15;66.66;102933.78;4947593;29;20132;-63
2024/01/25 08:48:42;;;;;;;28.00;8.25;;;;;;;8.13;66.60;102947.34;4951825;29;20070;-63
2024/01/25 08:51:10;;;;;;;21.15;7.25;;;;;;;8.15;66.63;102939.16;4955583;29;20061;-64
2024/01/25 08:53:40;;;;;;;25.17;7.15;;;;;;;8.16;67.13;102946.19;4945968;29;20045;-65
2024/01/25 08:56:08;;;;;;;28.25;8.30;;;;;;;8.16;67.22;102946.19;4952507;29;20120;-64
2024/01/25 08:58:36;;;;;;;22.60;7.20;;;;;;;8.16;66.78;102924.75;4947310;29;20051;-63
2024/01/25 09:01:05;;;;;;;24.65;8.55;;;;;;;8.16;67.35;102928.28;4955562;29;20106;-64
2024/01/25 09:03:33;;;;;;;24.55;7.38;;;;;;;8.25;67.12;102949.78;4952088;28;20078;-63
2024/01/25 09:06:05;;;;;;;25.00;8.07;;;;;;;8.38;66.61;102945.72;4955866;29;20087;-63
2024/01/25 09:08:33;;;;;;;23.75;7.47;;;;;;;8.54;65.67;102941.50;4958063;29;20055;-62
2024/01/25 09:11:01;;;;;;;19.67;7.50;;;;;;;8.70;65.65;102944.25;4948311;29;20082;-61
2024/01/25 09:13:29;;;;;;;28.80;8.38;;;;;;;8.86;65.04;102943.50;4941743;29;20048;-64
2024/01/25 09:15:57;;;;;;;26.25;9.10;;;;;;;9.01;64.22;102947.28;4945841;29;20118;-61
2024/01/25 09:18:26;;;;;;;28.60;8.38;;;;;;;9.18;64.48;102957.09;4957913;29;20474;-65
2024/01/25 09:20:54;;;;;;;20.88;7.50;;;;;;;9.33;63.66;102954.63;4955922;29;20056;-60
2024/01/25 09:23:22;;;;;;;24.13;7.22;;;;;;;9.41;63.68;102946.59;4946251;29;20462;-62
2024/01/25 09:25:51;;;;;;;18.02;8.00;;;;;;;9.43;63.57;102941.91;4948047;29;20056;-61
2024/01/25 09:28:19;;;;;;;26.98;8.52;;;;;;;9.52;62.96;102943.63;4949559;29;20052;-61
2024/01/25 09:30:48;;;;;;;28.15;8.27;;;;;;;9.63;63.29;102932.56;4951279;29;20123;-60
2024/01/25 09:33:19;;;;;;;26.10;8.55;;;;;;;9.71;62.85;102927.22;4953499;29;20044;-60
2024/01/25 09:35:49;;;;;;;31.70;8.38;;;;;;;9.80;62.51;102938.81;4952864;29;20465;-59
2024/01/25 09:38:18;;;;;;;25.17;8.00;;;;;;;9.88;62.66;102940.69;4952986;29;20051;-61
2024/01/25 09:40:46;;;;;;;23.48;7.90;;;;;;;9.92;62.31;102934.81;4947196;29;20051;-61
2024/01/25 09:43:14;;;;;;;23.83;7.20;;;;;;;9.98;62.18;102936.00;4949295;29;20411;-60
2024/01/25 09:45:42;;;;;;;23.40;8.38;;;;;;;10.06;61.94;102938.69;4944124;28;21071;-61
2024/01/25 09:48:11;;;;;;;27.98;8.70;;;;;;;10.10;61.77;102937.34;4950456;29;20055;-60
2024/01/25 09:50:40;;;;;;;25.50;9.07;;;;;;;10.12;61.85;102940.69;4948305;29;20051;-59
2024/01/25 09:53:14;;;;;;;24.17;7.13;;;;;;;10.15;61.83;102948.41;4940060;29;20111;-60
2024/01/25 09:55:45;;;;;;;32.22;9.40;;;;;;;10.20;61.62;102947.94;4935458;29;20135;-60
2024/01/25 09:58:13;;;;;;;26.63;7.95;;;;;;;10.24;61.82;102950.13;4948398;29;20052;-60
2024/01/25 10:00:42;;;;;;;24.77;8.35;;;;;;;10.25;61.65;102946.44;4944709;29;20079;-63
2024/01/25 10:03:10;;;;;;;25.25;9.07;;;;;;;10.17;62.00;102945.56;4948364;28;20122;-62
2024/01/25 10:05:38;;;;;;;24.95;8.45;;;;;;;10.10;62.35;102931.97;4942818;29;20048;-62
2024/01/25 10:08:14;;;;;;;23.95;8.77;;;;;;;10.05;62.36;102937.00;4945684;29;20051;-61
2024/01/25 10:10:42;;;;;;;22.90;7.40;;;;;;;9.93;62.65;102936.47;4946779;29;20047;-61
2024/01/25 10:13:13;;;;;;;22.83;7.78;;;;;;;9.83;63.23;102921.53;4942903;29;20063;-61
2024/01/25 10:15:44;;;;;;;26.17;9.07;;;;;;;9.69;63.61;102925.72;4939549;29;20048;-61
2024/01/25 10:18:13;;;;;;;29.95;9.90;;;;;;;9.52;64.49;102924.84;4946455;29;20138;-61
2024/01/25 10:20:56;;;;;;;24.75;9.50;;;;;;;9.40;64.98;102918.09;4948551;29;20494;-61
2024/01/25 10:23:26;;;;;;;25.88;9.68;;;;;;;9.27;64.93;102905.13;4944690;29;20044;-60
2024/01/25 10:25:57;;;;;;;26.45;9.82;;;;;;;9.25;65.22;102911.66;4941649;29;20044;-61
2024/01/25 10:28:28;;;;;;;25.38;10.32;;;;;;;9.19;65.60;102915.00;4945805;29;20059;-60
2024/01/25 10:30:57;;;;;;;30.50;11.60;;;;;;;9.14;65.70;102910.13;4944578;29;20044;-61
2024/01/25 10:33:27;;;;;;;28.27;10.18;;;;;;;9.11;66.53;102924.69;4945477;29;20059;-63
2024/01/25 10:36:01;;;;;;;30.40;11.52;;;;;;;9.08;66.29;102910.75;4944206;29;20056;-62
2024/01/25 10:38:31;;;;;;;28.58;10.88;;;;;;;9.04;66.63;102902.19;4945632;29;20537;-61
2024/01/25 10:41:02;;;;;;;28.08;10.82;;;;;;;9.06;66.84;102897.50;4945888;29;20091;-62
2024/01/25 10:43:31;;;;;;;35.10;11.52;;;;;;;9.18;66.12;102884.66;4943750;29;20115;-63
2024/01/25 10:46:00;;;;;;;24.33;11.07;;;;;;;9.36;65.47;102885.38;4938830;29;20099;-61
2024/01/25 10:48:32;;;;;;;31.70;10.50;;;;;;;9.51;65.05;102874.84;4945399;29;20051;-62
2024/01/25 10:51:02;;;;;;;33.60;10.80;;;;;;;9.68;64.78;102868.47;4945826;29;20501;-61
2024/01/25 10:53:35;;;;;;;24.85;10.82;;;;;;;9.84;64.41;102872.19;4945140;29;20058;-62
2024/01/25 10:56:03;;;;;;;26.80;11.57;;;;;;;9.89;63.95;102859.09;4942636;29;20075;-62
2024/01/25 10:58:32;;;;;;;29.08;9.63;;;;;;;9.94;63.88;102870.19;4928296;29;20052;-59
2024/01/25 11:01:11;;;;;;;27.77;10.60;;;;;;;10.03;63.68;102874.53;4939869;29;20098;-62
2024/01/25 11:03:46;;;;;;;29.88;10.38;;;;;;;10.10;63.76;102867.47;4952947;29;20147;-62
2024/01/25 11:06:14;;;;;;;26.33;9.85;;;;;;;10.13;63.52;102869.00;4950197;28;20083;-59
2024/01/25 11:08:44;;;;;;;26.25;10.30;;;;;;;10.06;63.73;102872.34;4615600;28;10000223;-61
2024/01/25 11:11:13;;;;;;;26.17;9.82;;;;;;;9.98;64.23;102866.97;4961225;29;20051;-60
2024/01/25 11:13:42;;;;;;;28.60;9.77;;;;;;;9.83;64.67;102865.97;4954001;29;20068;-61
2024/01/25 11:16:15;;;;;;;24.75;9.15;;;;;;;9.72;64.99;102864.47;4967302;28;20064;-61
2024/01/25 11:18:50;;;;;;;22.85;8.15;;;;;;;9.61;65.70;102848.69;4964082;28;20063;-61
2024/01/25 11:21:38;;;;;;;28.75;10.23;;;;;;;9.58;65.68;102840.97;4955303;29;20074;-61
2024/01/25 11:24:13;;;;;;;28.67;8.65;;;;;;;9.53;66.21;102834.41;4959939;29;20489;-60
2024/01/25 11:26:41;;;;;;;20.63;8.77;;;;;;;9.45;66.43;102838.75;4950587;29;20120;-62
2024/01/25 11:29:09;;;;;;;28.08;9.05;;;;;;;9.43;66.60;102830.03;4961196;29;20051;-61
2024/01/25 11:31:37;;;;;;;29.60;10.20;;;;;;;9.40;66.53;102830.38;4970611;28;20053;-60